createdAt,value
2023-02-15T00:00:55.853Z,-0.91
2023-02-15T00:01:57.342Z,-0.98
2023-02-15T00:02:58.857Z,-0.97
2023-02-15T00:04:00.708Z,-1.01
2023-02-15T00:05:02.181Z,-1.01
2023-02-15T00:06:04.575Z,-1.01
2023-02-15T00:07:05.958Z,-1.08
2023-02-15T00:08:07.392Z,-1.11
2023-02-15T00:09:10.753Z,-1.17
2023-02-15T00:10:13.001Z,-1.19
2023-02-15T00:11:17.228Z,-1.19
2023-02-15T00:12:18.690Z,-1.14
2023-02-15T00:13:20.177Z,-1.17
2023-02-15T00:14:24.235Z,-1.11
2023-02-15T00:15:26.866Z,-1.14
2023-02-15T00:16:28.280Z,-1.19
2023-02-15T00:17:29.769Z,-1.27
2023-02-15T00:18:31.898Z,-1.28
2023-02-15T00:19:33.283Z,-1.28
2023-02-15T00:20:35.426Z,-1.27
2023-02-15T00:21:37.204Z,-1.29
2023-02-15T00:22:39.383Z,-1.29
2023-02-15T00:23:40.737Z,-1.34
2023-02-15T00:24:42.179Z,-1.31
2023-02-15T00:25:43.578Z,-1.36
2023-02-15T00:26:45.904Z,-1.34
2023-02-15T00:27:47.308Z,-1.38
2023-02-15T00:28:48.735Z,-1.34
2023-02-15T00:29:50.466Z,-1.44
2023-02-15T00:30:52.012Z,-1.44
2023-02-15T00:31:54.140Z,-1.41
2023-02-15T00:32:55.549Z,-1.43
2023-02-15T00:33:57.090Z,-1.46
2023-02-15T00:34:58.510Z,-1.52
2023-02-15T00:36:01.308Z,-1.47
2023-02-15T00:37:03.389Z,-1.56
2023-02-15T00:38:04.831Z,-1.58
2023-02-15T00:39:06.717Z,-1.51
2023-02-15T00:40:08.604Z,-1.54
2023-02-15T00:41:10.795Z,-1.59
2023-02-15T00:42:12.181Z,-1.56
2023-02-15T00:43:13.600Z,-1.63
2023-02-15T00:44:16.046Z,-1.68
2023-02-15T00:45:17.617Z,-1.67
2023-02-15T00:46:19.108Z,-1.70
2023-02-15T00:47:20.595Z,-1.73
2023-02-15T00:48:22.456Z,-1.77
2023-02-15T00:49:23.849Z,-1.79
2023-02-15T00:50:25.279Z,-1.80
2023-02-15T00:51:27.174Z,-1.80
2023-02-15T00:52:28.606Z,-1.79
2023-02-15T00:53:30.852Z,-1.84
2023-02-15T00:54:32.271Z,-1.87
2023-02-15T00:55:34.109Z,-1.88
2023-02-15T00:56:35.608Z,-1.87
2023-02-15T00:57:37.103Z,-1.86
2023-02-15T00:58:38.567Z,-1.87
2023-02-15T00:59:39.999Z,-1.88
2023-02-15T01:00:43.379Z,-1.90
2023-02-15T01:01:44.839Z,-1.90
2023-02-15T01:02:46.278Z,-1.88
2023-02-15T01:03:47.996Z,-1.88
2023-02-15T01:04:49.405Z,-1.81
2023-02-15T01:05:50.902Z,-1.89
2023-02-15T01:06:52.280Z,-1.92
2023-02-15T01:07:54.642Z,-1.98
2023-02-15T01:08:56.222Z,-2.02
2023-02-15T01:09:57.660Z,-2.00
2023-02-15T01:11:05.078Z,-2.04
2023-02-15T01:12:06.539Z,-2.01
2023-02-15T01:13:07.949Z,-2.02
2023-02-15T01:14:09.424Z,-2.11
2023-02-15T01:15:11.021Z,-2.08
2023-02-15T01:16:12.581Z,-2.12
2023-02-15T01:17:14.141Z,-2.25
2023-02-15T01:18:15.753Z,-2.20
2023-02-15T01:19:17.185Z,-2.18
2023-02-15T01:20:19.976Z,-2.20
2023-02-15T01:21:23.081Z,-2.26
2023-02-15T01:22:24.478Z,-2.25
2023-02-15T01:23:25.910Z,-2.26
2023-02-15T01:24:27.322Z,-2.30
2023-02-15T01:25:28.766Z,-2.20
2023-02-15T01:26:30.250Z,-2.20
2023-02-15T01:27:31.881Z,-2.29
2023-02-15T01:28:33.545Z,-2.34
2023-02-15T01:29:34.944Z,-2.37
2023-02-15T01:30:36.568Z,-2.33
2023-02-15T01:31:40.012Z,-2.35
2023-02-15T01:32:42.799Z,-2.31
2023-02-15T01:33:44.340Z,-2.29
2023-02-15T01:34:45.766Z,-2.30
2023-02-15T01:35:47.216Z,-2.35
2023-02-15T01:36:49.186Z,-2.39
2023-02-15T01:37:50.632Z,-2.39
2023-02-15T01:38:52.021Z,-2.43
2023-02-15T01:39:54.801Z,-2.31
2023-02-15T01:41:18.955Z,-2.28
2023-02-15T01:42:25.283Z,-2.35
2023-02-15T01:43:41.373Z,-2.39
2023-02-15T01:44:51.759Z,-2.42
2023-02-15T01:45:53.395Z,-2.45
2023-02-15T01:46:55.282Z,-2.49
2023-02-15T01:48:04.810Z,-2.53
2023-02-15T01:49:14.526Z,-2.55
2023-02-15T01:50:39.458Z,-2.51
2023-02-15T01:51:43.963Z,-2.49
2023-02-15T01:52:51.662Z,-2.56
2023-02-15T01:53:58.421Z,-2.52
2023-02-15T01:55:00.290Z,-2.52
2023-02-15T01:56:13.531Z,-2.51
2023-02-15T01:57:20.716Z,-2.57
2023-02-15T01:58:25.964Z,-2.57
2023-02-15T01:59:27.660Z,-2.58
2023-02-15T02:00:30.073Z,-2.59
2023-02-15T02:01:31.779Z,-2.59
2023-02-15T02:02:33.368Z,-2.59
2023-02-15T02:03:47.201Z,-2.57
2023-02-15T02:04:51.939Z,-2.56
2023-02-15T02:05:53.399Z,-2.66
2023-02-15T02:06:55.637Z,-2.62
2023-02-15T02:07:58.935Z,-2.60
2023-02-15T02:09:00.941Z,-2.59
2023-02-15T02:10:03.928Z,-2.63
2023-02-15T02:11:12.044Z,-2.62
2023-02-15T02:12:13.942Z,-2.71
2023-02-15T02:13:15.431Z,-2.66
2023-02-15T02:14:18.456Z,-2.66
2023-02-15T02:15:26.131Z,-2.59
2023-02-15T02:16:41.227Z,-2.64
2023-02-15T02:18:09.172Z,-2.59
2023-02-15T02:19:42.981Z,-2.59
2023-02-15T02:21:06.083Z,-2.59
2023-02-15T02:22:40.903Z,-2.54
2023-02-15T02:24:10.864Z,-2.60
2023-02-15T02:25:18.735Z,-2.60
2023-02-15T02:26:38.958Z,-2.53
2023-02-15T02:27:57.828Z,-2.38
2023-02-15T02:29:34.521Z,-2.34
2023-02-15T02:30:36.114Z,-2.29
2023-02-15T02:31:53.923Z,-2.23
2023-02-15T02:33:28.639Z,-2.27
2023-02-15T02:34:34.492Z,-2.30
2023-02-15T02:35:59.337Z,-2.30
2023-02-15T02:37:29.341Z,-2.23
2023-02-15T02:39:09.365Z,-2.30
2023-02-15T02:40:35.218Z,-2.29
2023-02-15T02:41:59.831Z,-2.31
2023-02-15T02:43:17.191Z,-2.35
2023-02-15T02:44:44.908Z,-2.37
2023-02-15T02:45:59.320Z,-2.45
2023-02-15T02:47:10.803Z,-2.43
2023-02-15T02:48:19.852Z,-2.44
2023-02-15T02:49:32.521Z,-2.40
2023-02-15T02:50:34.003Z,-2.45
2023-02-15T02:51:35.470Z,-2.45
2023-02-15T02:52:47.904Z,-2.45
2023-02-15T02:53:52.579Z,-2.27
2023-02-15T02:54:55.903Z,-2.21
2023-02-15T02:56:07.039Z,-2.07
2023-02-15T02:57:10.672Z,-2.03
2023-02-15T02:58:22.542Z,-2.04
2023-02-15T02:59:40.354Z,-1.98
2023-02-15T03:00:46.879Z,-2.05
2023-02-15T03:02:05.680Z,-1.96
2023-02-15T03:03:15.825Z,-1.88
2023-02-15T03:04:24.076Z,-1.73
2023-02-15T03:05:27.766Z,-1.63
2023-02-15T03:06:43.030Z,-1.58
2023-02-15T03:07:50.316Z,-1.63
2023-02-15T03:09:17.437Z,-1.60
2023-02-15T03:10:23.141Z,-1.63
2023-02-15T03:11:24.621Z,-1.67
2023-02-15T03:12:35.280Z,-1.73
2023-02-15T03:13:36.940Z,-1.87
2023-02-15T03:14:40.415Z,-1.90
2023-02-15T03:16:03.648Z,-1.94
2023-02-15T03:17:07.749Z,-1.97
2023-02-15T03:18:09.601Z,-2.01
2023-02-15T03:19:15.004Z,-2.04
2023-02-15T03:20:31.641Z,-2.14
2023-02-15T03:22:04.622Z,-2.19
2023-02-15T03:23:12.085Z,-2.29
2023-02-15T03:24:17.779Z,-2.25
2023-02-15T03:25:26.747Z,-2.10
2023-02-15T03:26:29.386Z,-2.06
2023-02-15T03:27:42.051Z,-2.10
2023-02-15T03:28:46.611Z,-2.08
2023-02-15T03:29:54.362Z,-2.06
2023-02-15T03:30:59.892Z,-1.98
2023-02-15T03:32:06.373Z,-1.99
2023-02-15T03:33:09.849Z,-1.91
2023-02-15T03:34:15.070Z,-1.94
2023-02-15T03:35:16.819Z,-1.82
2023-02-15T03:36:34.117Z,-1.88
2023-02-15T03:37:48.135Z,-1.95
2023-02-15T03:39:27.495Z,-1.93
2023-02-15T03:40:56.639Z,-1.97
2023-02-15T03:42:06.902Z,-1.98
2023-02-15T03:43:22.479Z,-2.01
2023-02-15T03:44:32.703Z,-2.05
2023-02-15T03:45:37.746Z,-2.01
2023-02-15T03:46:53.475Z,-1.90
2023-02-15T03:47:59.338Z,-1.89
2023-02-15T03:49:21.965Z,-1.88
2023-02-15T03:50:49.256Z,-1.88
2023-02-15T03:51:54.129Z,-2.00
2023-02-15T03:52:58.284Z,-2.05
2023-02-15T03:54:11.065Z,-2.12
2023-02-15T03:55:12.627Z,-2.15
2023-02-15T03:56:14.137Z,-2.21
2023-02-15T03:57:37.085Z,-2.23
2023-02-15T03:58:56.713Z,-2.34
2023-02-15T04:00:21.043Z,-2.35
2023-02-15T04:01:44.130Z,-2.22
2023-02-15T04:03:00.510Z,-2.17
2023-02-15T04:04:17.456Z,-2.26
2023-02-15T04:05:18.845Z,-2.39
2023-02-15T04:06:20.261Z,-2.44
2023-02-15T04:07:21.671Z,-2.50
2023-02-15T04:08:43.079Z,-2.50
2023-02-15T04:10:02.891Z,-2.58
2023-02-15T04:11:04.327Z,-2.61
2023-02-15T04:12:05.878Z,-2.62
2023-02-15T04:13:07.347Z,-2.48
2023-02-15T04:14:27.250Z,-2.44
2023-02-15T04:15:47.210Z,-2.53
2023-02-15T04:16:48.758Z,-2.55
2023-02-15T04:17:50.210Z,-2.56
2023-02-15T04:19:10.813Z,-2.54
2023-02-15T04:20:31.170Z,-2.58
2023-02-15T04:21:51.023Z,-2.63
2023-02-15T04:23:11.200Z,-2.69
2023-02-15T04:24:32.487Z,-2.75
2023-02-15T04:25:33.922Z,-2.83
2023-02-15T04:26:35.340Z,-2.94
2023-02-15T04:27:37.578Z,-2.95
2023-02-15T04:28:38.901Z,-2.94
2023-02-15T04:29:40.328Z,-2.98
2023-02-15T04:30:41.734Z,-3.04
2023-02-15T04:31:43.901Z,-3.08
2023-02-15T04:32:45.365Z,-3.07
2023-02-15T04:33:46.806Z,-3.07
2023-02-15T04:34:48.196Z,-3.05
2023-02-15T04:35:49.650Z,-3.13
2023-02-15T04:36:51.249Z,-3.15
2023-02-15T04:37:52.709Z,-3.17
2023-02-15T04:38:54.137Z,-3.18
2023-02-15T04:39:55.628Z,-3.21
2023-02-15T04:40:57.059Z,-3.21
2023-02-15T04:41:58.594Z,-3.27
2023-02-15T04:43:00.038Z,-3.33
2023-02-15T04:44:02.084Z,-3.40
2023-02-15T04:45:03.905Z,-3.44
2023-02-15T04:46:05.660Z,-3.43
2023-02-15T04:47:07.205Z,-3.44
2023-02-15T04:48:08.691Z,-3.32
2023-02-15T04:49:10.720Z,-3.34
2023-02-15T04:50:12.576Z,-3.35
2023-02-15T04:51:14.054Z,-3.40
2023-02-15T04:52:15.624Z,-3.37
2023-02-15T04:53:18.265Z,-3.40
2023-02-15T04:54:19.771Z,-3.41
2023-02-15T04:55:21.251Z,-3.40
2023-02-15T04:56:22.724Z,-3.44
2023-02-15T04:57:24.184Z,-3.40
2023-02-15T04:58:25.636Z,-3.37
2023-02-15T04:59:27.041Z,-3.35
2023-02-15T05:00:28.644Z,-3.35
2023-02-15T05:01:30.225Z,-3.31
2023-02-15T05:02:31.686Z,-3.36
2023-02-15T05:03:33.086Z,-3.28
2023-02-15T05:04:34.610Z,-3.23
2023-02-15T05:05:36.133Z,-3.13
2023-02-15T05:06:37.591Z,-3.08
2023-02-15T05:07:39.014Z,-2.95
2023-02-15T05:08:40.457Z,-2.81
2023-02-15T05:09:41.961Z,-2.68
2023-02-15T05:10:43.549Z,-2.60
2023-02-15T05:11:44.949Z,-2.55
2023-02-15T05:12:46.408Z,-2.45
2023-02-15T05:13:48.145Z,-2.32
2023-02-15T05:14:49.580Z,-2.28
2023-02-15T05:15:52.718Z,-2.21
2023-02-15T05:16:54.976Z,-2.08
2023-02-15T05:17:56.509Z,-2.03
2023-02-15T05:18:57.988Z,-1.99
2023-02-15T05:19:59.419Z,-2.01
2023-02-15T05:21:00.833Z,-2.02
2023-02-15T05:22:02.272Z,-1.96
2023-02-15T05:23:03.742Z,-1.94
2023-02-15T05:24:25.397Z,-2.00
2023-02-15T05:25:45.480Z,-1.94
2023-02-15T05:27:05.347Z,-1.97
2023-02-15T05:28:23.192Z,-1.99
2023-02-15T05:29:24.635Z,-1.93
2023-02-15T05:30:26.250Z,-1.95
2023-02-15T05:31:28.144Z,-1.88
2023-02-15T05:32:29.761Z,-1.93
2023-02-15T05:33:31.541Z,-1.92
2023-02-15T05:34:33.033Z,-1.88
2023-02-15T05:35:35.539Z,-1.87
2023-02-15T05:36:36.954Z,-1.88
2023-02-15T05:37:38.367Z,-1.86
2023-02-15T05:38:40.441Z,-1.85
2023-02-15T05:39:41.919Z,-1.82
2023-02-15T05:40:43.362Z,-1.85
2023-02-15T05:41:44.805Z,-1.87
2023-02-15T05:42:46.208Z,-1.89
2023-02-15T05:43:47.892Z,-1.90
2023-02-15T05:44:49.333Z,-1.88
2023-02-15T05:45:53.403Z,-1.91
2023-02-15T05:46:54.862Z,-1.86
2023-02-15T05:47:56.399Z,-1.90
2023-02-15T05:48:57.828Z,-1.86
2023-02-15T05:49:59.277Z,-1.89
2023-02-15T05:51:03.854Z,-1.86
2023-02-15T05:52:06.450Z,-1.95
2023-02-15T05:53:08.058Z,-1.89
2023-02-15T05:54:09.542Z,-1.92
2023-02-15T05:55:11.051Z,-1.97
2023-02-15T05:56:13.349Z,-1.91
2023-02-15T05:57:14.953Z,-1.96
2023-02-15T05:58:16.351Z,-1.97
2023-02-15T05:59:17.871Z,-2.02
2023-02-15T06:00:19.716Z,-1.98
2023-02-15T06:01:23.473Z,-2.01
2023-02-15T06:02:24.918Z,-1.92
2023-02-15T06:03:29.301Z,-1.95
2023-02-15T06:04:30.785Z,-1.93
2023-02-15T06:05:32.239Z,-1.97
2023-02-15T06:06:35.426Z,-1.99
2023-02-15T06:07:36.914Z,-1.99
2023-02-15T06:08:39.279Z,-1.97
2023-02-15T06:09:40.711Z,-2.04
2023-02-15T06:10:42.141Z,-1.95
2023-02-15T06:11:43.575Z,-1.92
2023-02-15T06:12:45.624Z,-1.92
2023-02-15T06:13:47.054Z,-1.94
2023-02-15T06:14:48.559Z,-1.93
2023-02-15T06:15:50.086Z,-1.93
2023-02-15T06:16:51.829Z,-1.90
2023-02-15T06:17:53.251Z,-1.95
2023-02-15T06:18:54.665Z,-1.98
2023-02-15T06:19:56.421Z,-1.96
2023-02-15T06:20:57.883Z,-1.95
2023-02-15T06:21:59.483Z,-1.91
2023-02-15T06:23:00.999Z,-1.92
2023-02-15T06:24:02.435Z,-1.95
2023-02-15T06:25:04.462Z,-2.05
2023-02-15T06:26:06.193Z,-2.06
2023-02-15T06:27:07.644Z,-2.05
2023-02-15T06:28:09.127Z,-2.00
2023-02-15T06:29:10.614Z,-1.96
2023-02-15T06:30:12.770Z,-1.93
2023-02-15T06:31:14.287Z,-1.92
2023-02-15T06:32:15.781Z,-1.93
2023-02-15T06:33:17.270Z,-1.94
2023-02-15T06:34:18.746Z,-2.00
2023-02-15T06:35:20.290Z,-2.01
2023-02-15T06:36:21.708Z,-1.96
2023-02-15T06:37:23.129Z,-1.97
2023-02-15T06:38:24.598Z,-1.93
2023-02-15T06:39:26.004Z,-2.08
2023-02-15T06:40:27.428Z,-2.03
2023-02-15T06:41:28.831Z,-2.03
2023-02-15T06:42:30.728Z,-1.98
2023-02-15T06:43:32.221Z,-1.94
2023-02-15T06:44:33.738Z,-1.93
2023-02-15T06:45:35.296Z,-1.86
2023-02-15T06:46:36.758Z,-1.86
2023-02-15T06:47:38.902Z,-1.84
2023-02-15T06:48:40.309Z,-1.81
2023-02-15T06:49:41.731Z,-1.84
2023-02-15T06:50:43.272Z,-1.87
2023-02-15T06:51:44.721Z,-2.01
2023-02-15T06:52:46.247Z,-1.91
2023-02-15T06:53:47.695Z,-1.89
2023-02-15T06:54:49.157Z,-1.87
2023-02-15T06:55:50.621Z,-1.85
2023-02-15T06:56:52.096Z,-1.89
2023-02-15T06:57:53.598Z,-1.89
2023-02-15T06:58:55.024Z,-1.84
2023-02-15T06:59:56.716Z,-1.88
2023-02-15T07:00:58.221Z,-1.90
2023-02-15T07:01:59.637Z,-1.83
2023-02-15T07:03:02.928Z,-1.79
2023-02-15T07:04:04.505Z,-1.81
2023-02-15T07:05:06.277Z,-1.81
2023-02-15T07:06:09.483Z,-1.81
2023-02-15T07:07:12.364Z,-1.73
2023-02-15T07:08:13.968Z,-1.75
2023-02-15T07:09:15.378Z,-1.74
2023-02-15T07:10:17.265Z,-1.78
2023-02-15T07:11:37.291Z,-1.78
2023-02-15T07:12:45.236Z,-1.76
2023-02-15T07:13:47.649Z,-1.74
2023-02-15T07:14:49.118Z,-1.73
2023-02-15T07:15:50.601Z,-1.63
2023-02-15T07:16:52.060Z,-1.63
2023-02-15T07:17:53.510Z,-1.55
2023-02-15T07:18:54.925Z,-1.58
2023-02-15T07:19:56.326Z,-1.52
2023-02-15T07:20:57.751Z,-1.45
2023-02-15T07:21:59.223Z,-1.52
2023-02-15T07:23:00.650Z,-1.49
2023-02-15T07:24:02.605Z,-1.45
2023-02-15T07:25:05.463Z,-1.44
2023-02-15T07:26:07.527Z,-1.43
2023-02-15T07:27:13.502Z,-1.38
2023-02-15T07:28:16.830Z,-1.36
2023-02-15T07:29:18.827Z,-1.32
2023-02-15T07:30:23.377Z,-1.33
2023-02-15T07:31:24.852Z,-1.32
2023-02-15T07:32:30.400Z,-1.30
2023-02-15T07:33:33.589Z,-1.27
2023-02-15T07:34:34.974Z,-1.23
2023-02-15T07:35:36.456Z,-1.28
2023-02-15T07:36:38.038Z,-1.27
2023-02-15T07:37:39.444Z,-1.29
2023-02-15T07:38:42.085Z,-1.27
2023-02-15T07:39:43.507Z,-1.26
2023-02-15T07:40:46.065Z,-1.28
2023-02-15T07:41:47.548Z,-1.27
2023-02-15T07:42:48.963Z,-1.31
2023-02-15T07:43:50.541Z,-1.21
2023-02-15T07:44:53.482Z,-1.24
2023-02-15T07:45:54.975Z,-1.25
2023-02-15T07:46:56.460Z,-1.17
2023-02-15T07:47:57.933Z,-1.15
2023-02-15T07:48:59.311Z,-1.12
2023-02-15T07:50:00.726Z,-1.14
2023-02-15T07:51:04.575Z,-1.16
2023-02-15T07:52:05.981Z,-1.19
2023-02-15T07:53:07.477Z,-1.14
2023-02-15T07:54:08.974Z,-1.14
2023-02-15T07:55:13.314Z,-1.08
2023-02-15T07:56:15.630Z,-1.12
2023-02-15T07:57:17.068Z,-1.03
2023-02-15T07:58:18.520Z,-1.04
2023-02-15T07:59:19.913Z,-1.06
2023-02-15T08:00:30.536Z,-0.95
2023-02-15T08:01:36.020Z,-0.91
2023-02-15T08:02:38.003Z,-1.01
2023-02-15T08:03:39.529Z,-0.86
2023-02-15T08:04:41.080Z,-0.89
2023-02-15T08:05:45.062Z,-0.88
2023-02-15T08:06:46.514Z,-0.90
2023-02-15T08:07:47.939Z,-0.90
2023-02-15T08:08:49.459Z,-0.85
2023-02-15T08:09:50.878Z,-0.77
2023-02-15T08:11:10.919Z,-0.85
2023-02-15T08:12:12.307Z,-0.83
2023-02-15T08:13:13.843Z,-0.74
2023-02-15T08:14:21.298Z,-0.75
2023-02-15T08:15:22.765Z,-0.73
2023-02-15T08:16:45.238Z,-0.71
2023-02-15T08:17:46.723Z,-0.64
2023-02-15T08:18:48.547Z,-0.67
2023-02-15T08:19:49.983Z,-0.58
2023-02-15T08:20:51.437Z,-0.66
2023-02-15T08:21:55.896Z,-0.64
2023-02-15T08:22:57.333Z,-0.62
2023-02-15T08:23:59.357Z,-0.55
2023-02-15T08:25:00.809Z,-0.48
2023-02-15T08:26:02.510Z,-0.48
2023-02-15T08:27:06.478Z,-0.46
2023-02-15T08:28:08.032Z,-0.35
2023-02-15T08:29:10.370Z,-0.35
2023-02-15T08:30:12.864Z,-0.35
2023-02-15T08:31:15.030Z,-0.33
2023-02-15T08:32:16.461Z,-0.38
2023-02-15T08:33:18.844Z,-0.32
2023-02-15T08:34:21.350Z,-0.24
2023-02-15T08:35:22.748Z,-0.32
2023-02-15T08:36:26.870Z,-0.23
2023-02-15T08:37:28.356Z,-0.25
2023-02-15T08:38:30.113Z,-0.18
2023-02-15T08:39:32.314Z,-0.13
2023-02-15T08:40:33.738Z,-0.08
2023-02-15T08:41:37.020Z,-0.03
2023-02-15T08:42:38.452Z,-0.06
2023-02-15T08:43:40.162Z,0.04
2023-02-15T08:44:41.608Z,0.07
2023-02-15T08:45:43.051Z,0.20
2023-02-15T08:46:45.980Z,0.14
2023-02-15T08:47:47.606Z,0.09
2023-02-15T08:48:49.122Z,0.07
2023-02-15T08:49:52.000Z,0.14
2023-02-15T08:50:53.370Z,0.16
2023-02-15T08:51:54.796Z,0.20
2023-02-15T08:52:56.955Z,0.19
2023-02-15T08:54:00.052Z,0.16
2023-02-15T08:55:01.485Z,0.25
2023-02-15T08:56:02.994Z,0.27
2023-02-15T08:57:04.498Z,0.40
2023-02-15T08:58:05.889Z,0.42
2023-02-15T08:59:12.419Z,0.41
2023-02-15T09:00:14.453Z,0.40
2023-02-15T09:01:19.129Z,0.37
2023-02-15T09:02:20.664Z,0.40
2023-02-15T09:03:22.150Z,0.45
2023-02-15T09:04:23.708Z,0.41
2023-02-15T09:05:25.203Z,0.47
2023-02-15T09:06:27.992Z,0.58
2023-02-15T09:07:29.426Z,0.38
2023-02-15T09:08:30.818Z,0.54
2023-02-15T09:09:32.929Z,0.67
2023-02-15T09:10:34.240Z,0.73
2023-02-15T09:11:39.197Z,0.82
2023-02-15T09:12:40.614Z,0.81
2023-02-15T09:13:42.089Z,0.82
2023-02-15T09:14:43.486Z,0.88
2023-02-15T09:15:45.125Z,0.83
2023-02-15T09:16:49.586Z,0.85
2023-02-15T09:17:51.224Z,0.92
2023-02-15T09:18:53.624Z,0.90
2023-02-15T09:19:55.089Z,0.91
2023-02-15T09:20:56.526Z,0.91
2023-02-15T09:21:59.048Z,1.00
2023-02-15T09:23:00.848Z,1.03
2023-02-15T09:24:05.624Z,1.02
2023-02-15T09:25:07.336Z,0.92
2023-02-15T09:26:30.231Z,0.88
2023-02-15T09:27:31.683Z,1.06
2023-02-15T09:28:33.860Z,1.08
2023-02-15T09:29:35.234Z,1.12
2023-02-15T09:30:36.728Z,1.04
2023-02-15T09:31:45.112Z,1.11
2023-02-15T09:32:47.774Z,1.19
2023-02-15T09:33:50.108Z,1.24
2023-02-15T09:34:51.543Z,1.23
2023-02-15T09:35:52.959Z,1.24
2023-02-15T09:36:54.440Z,1.33
2023-02-15T09:37:55.966Z,1.40
2023-02-15T09:39:08.997Z,1.39
2023-02-15T09:40:17.187Z,1.39
2023-02-15T09:41:21.263Z,1.44
2023-02-15T09:42:37.349Z,1.51
2023-02-15T09:43:46.280Z,1.63
2023-02-15T09:45:04.815Z,1.79
2023-02-15T09:46:42.876Z,1.73
2023-02-15T09:47:53.498Z,1.87
2023-02-15T09:49:03.515Z,1.88
2023-02-15T09:50:29.125Z,1.91
2023-02-15T09:51:40.736Z,1.85
2023-02-15T09:52:57.117Z,1.89
2023-02-15T09:54:41.583Z,1.85
2023-02-15T09:55:48.837Z,2.01
2023-02-15T09:57:00.351Z,1.98
2023-02-15T09:58:07.653Z,2.22
2023-02-15T09:59:26.168Z,2.08
2023-02-15T10:00:27.581Z,1.98
2023-02-15T10:01:49.457Z,2.06
2023-02-15T10:03:34.512Z,2.19
2023-02-15T10:05:11.672Z,2.25
2023-02-15T10:06:22.552Z,2.24
2023-02-15T10:07:23.927Z,2.26
2023-02-15T10:08:50.041Z,2.27
2023-02-15T10:10:03.730Z,2.28
2023-02-15T10:11:40.165Z,2.33
2023-02-15T10:13:02.700Z,2.44
2023-02-15T10:14:39.694Z,2.50
2023-02-15T10:15:52.875Z,2.57
2023-02-15T10:17:09.198Z,2.62
2023-02-15T10:18:36.819Z,2.61
2023-02-15T10:19:52.136Z,2.65
2023-02-15T10:21:31.306Z,2.70
2023-02-15T10:22:39.186Z,2.92
2023-02-15T10:23:51.456Z,2.92
2023-02-15T10:25:13.033Z,2.91
2023-02-15T10:26:23.569Z,2.77
2023-02-15T10:27:25.890Z,2.50
2023-02-15T10:28:43.514Z,2.48
2023-02-15T10:30:12.413Z,2.74
2023-02-15T10:31:25.039Z,3.00
2023-02-15T10:32:29.814Z,2.98
2023-02-15T10:33:42.955Z,3.07
2023-02-15T10:34:51.027Z,3.11
2023-02-15T10:36:07.567Z,3.04
2023-02-15T10:37:40.450Z,3.10
2023-02-15T10:38:58.565Z,3.18
2023-02-15T10:40:47.482Z,2.90
2023-02-15T10:42:04.209Z,3.28
2023-02-15T10:43:15.236Z,3.33
2023-02-15T10:44:37.654Z,3.51
2023-02-15T10:46:33.706Z,3.69
2023-02-15T10:47:53.670Z,3.61
2023-02-15T10:49:13.487Z,3.65
2023-02-15T10:50:42.559Z,3.68
2023-02-15T10:52:02.490Z,3.59
2023-02-15T10:53:16.031Z,3.25
2023-02-15T10:54:37.508Z,3.22
2023-02-15T10:55:53.278Z,3.29
2023-02-15T10:57:10.998Z,3.25
2023-02-15T10:58:37.510Z,3.19
2023-02-15T11:00:03.353Z,3.42
2023-02-15T11:01:13.943Z,3.70
2023-02-15T11:02:53.151Z,3.86
2023-02-15T11:04:06.989Z,3.74
2023-02-15T11:05:33.169Z,3.66
2023-02-15T11:06:37.766Z,3.74
2023-02-15T11:07:43.722Z,3.77
2023-02-15T11:08:48.451Z,3.39
2023-02-15T11:10:07.004Z,3.55
2023-02-15T11:11:13.763Z,3.53
2023-02-15T11:12:21.090Z,3.43
2023-02-15T11:13:28.463Z,3.41
2023-02-15T11:14:47.404Z,3.43
2023-02-15T11:16:06.094Z,3.45
2023-02-15T11:17:12.820Z,3.43
2023-02-15T11:18:22.874Z,3.40
2023-02-15T11:19:35.125Z,3.41
2023-02-15T11:20:47.570Z,3.41
2023-02-15T11:21:59.118Z,3.38
2023-02-15T11:23:02.383Z,3.41
2023-02-15T11:24:15.569Z,3.32
2023-02-15T11:25:36.106Z,3.41
2023-02-15T11:26:45.371Z,3.39
2023-02-15T11:27:49.504Z,3.46
2023-02-15T11:29:00.072Z,3.51
2023-02-15T11:30:18.548Z,3.52
2023-02-15T11:31:23.466Z,3.38
2023-02-15T11:32:44.199Z,3.50
2023-02-15T11:33:50.842Z,3.54
2023-02-15T11:35:15.315Z,3.61
2023-02-15T11:36:23.477Z,3.71
2023-02-15T11:37:33.542Z,3.70
2023-02-15T11:38:35.850Z,3.78
2023-02-15T11:39:38.386Z,3.89
2023-02-15T11:40:53.845Z,4.00
2023-02-15T11:42:03.432Z,4.13
2023-02-15T11:43:11.780Z,4.02
2023-02-15T11:44:22.197Z,4.09
2023-02-15T11:45:32.082Z,4.04
2023-02-15T11:46:33.645Z,4.08
2023-02-15T11:47:35.136Z,4.02
2023-02-15T11:48:37.011Z,4.08
2023-02-15T11:49:39.448Z,4.16
2023-02-15T11:50:43.359Z,4.23
2023-02-15T11:51:44.769Z,4.21
2023-02-15T11:52:46.214Z,4.21
2023-02-15T11:53:48.126Z,4.19
2023-02-15T11:54:51.977Z,4.27
2023-02-15T11:55:53.566Z,4.30
2023-02-15T11:57:00.354Z,4.35
2023-02-15T11:58:18.364Z,4.43
2023-02-15T11:59:29.239Z,4.51
2023-02-15T12:00:42.512Z,4.50
2023-02-15T12:01:46.001Z,4.64
2023-02-15T12:02:53.623Z,4.72
2023-02-15T12:04:00.455Z,4.83
2023-02-15T12:05:07.771Z,4.92
2023-02-15T12:06:17.529Z,4.93
2023-02-15T12:07:27.637Z,4.96
2023-02-15T12:08:39.598Z,5.00
2023-02-15T12:09:52.884Z,5.07
2023-02-15T12:11:08.229Z,5.12
2023-02-15T12:12:25.593Z,5.25
2023-02-15T12:13:27.316Z,5.27
2023-02-15T12:14:48.281Z,5.41
2023-02-15T12:15:53.424Z,5.46
2023-02-15T12:16:56.992Z,5.48
2023-02-15T12:17:58.426Z,5.53
2023-02-15T12:19:02.073Z,5.57
2023-02-15T12:20:15.512Z,5.62
2023-02-15T12:21:29.841Z,5.68
2023-02-15T12:22:37.600Z,5.65
2023-02-15T12:23:49.552Z,5.66
2023-02-15T12:24:54.716Z,5.68
2023-02-15T12:25:58.353Z,5.77
2023-02-15T12:27:04.934Z,5.86
2023-02-15T12:28:26.819Z,5.89
2023-02-15T12:29:49.191Z,5.89
2023-02-15T12:30:51.646Z,5.93
2023-02-15T12:31:53.931Z,6.01
2023-02-15T12:33:00.689Z,6.10
2023-02-15T12:34:08.667Z,6.16
2023-02-15T12:35:28.717Z,6.22
2023-02-15T12:36:32.692Z,6.29
2023-02-15T12:37:35.672Z,6.28
2023-02-15T12:38:37.284Z,6.37
2023-02-15T12:39:52.839Z,6.46
2023-02-15T12:41:06.108Z,6.56
2023-02-15T12:42:18.164Z,6.65
2023-02-15T12:43:35.895Z,6.70
2023-02-15T12:44:38.125Z,6.76
2023-02-15T12:45:39.746Z,6.90
2023-02-15T12:46:41.216Z,6.99
2023-02-15T12:47:42.710Z,7.08
2023-02-15T12:48:44.130Z,7.13
2023-02-15T12:50:04.482Z,7.18
2023-02-15T12:51:10.443Z,7.23
2023-02-15T12:52:23.939Z,7.11
2023-02-15T12:53:34.536Z,7.07
2023-02-15T12:54:41.752Z,7.14
2023-02-15T12:55:56.287Z,7.13
2023-02-15T12:56:58.725Z,7.19
2023-02-15T12:58:08.320Z,7.21
2023-02-15T12:59:16.418Z,7.20
2023-02-15T13:00:29.899Z,7.33
2023-02-15T13:01:34.058Z,7.40
2023-02-15T13:02:41.415Z,7.49
2023-02-15T13:03:55.143Z,7.62
2023-02-15T13:04:58.504Z,7.62
2023-02-15T13:06:00.214Z,7.62
2023-02-15T13:07:03.651Z,7.59
2023-02-15T13:08:13.421Z,7.56
2023-02-15T13:09:26.409Z,7.57
2023-02-15T13:10:36.069Z,7.74
2023-02-15T13:11:38.766Z,7.67
2023-02-15T13:12:48.047Z,7.81
2023-02-15T13:13:56.139Z,7.77
2023-02-15T13:15:00.014Z,7.86
2023-02-15T13:16:47.978Z,7.88
2023-02-15T13:17:49.552Z,7.92
2023-02-15T13:18:52.920Z,8.02
2023-02-15T13:19:57.505Z,8.04
2023-02-15T13:21:11.044Z,8.20
2023-02-15T13:22:26.769Z,8.24
2023-02-15T13:23:31.064Z,8.38
2023-02-15T13:24:49.772Z,8.47
2023-02-15T13:25:52.545Z,8.53
2023-02-15T13:27:14.161Z,8.62
2023-02-15T13:28:19.756Z,8.64
2023-02-15T13:29:38.059Z,8.65
2023-02-15T13:30:45.447Z,8.60
2023-02-15T13:31:46.945Z,8.70
2023-02-15T13:32:52.334Z,8.77
2023-02-15T13:34:04.240Z,8.85
2023-02-15T13:35:17.324Z,8.85
2023-02-15T13:36:32.349Z,8.81
2023-02-15T13:37:52.060Z,8.85
2023-02-15T13:38:59.002Z,8.92
2023-02-15T13:40:23.463Z,8.96
2023-02-15T13:41:35.586Z,8.97
2023-02-15T13:42:42.654Z,8.94
2023-02-15T13:43:56.357Z,9.00
2023-02-15T13:45:17.533Z,8.98
2023-02-15T13:46:45.371Z,8.89
2023-02-15T13:48:16.952Z,8.89
2023-02-15T13:49:27.293Z,8.95
2023-02-15T13:51:01.330Z,8.97
2023-02-15T13:52:02.712Z,8.93
2023-02-15T13:53:07.186Z,9.03
2023-02-15T13:54:36.485Z,9.02
2023-02-15T13:55:44.810Z,9.00
2023-02-15T13:57:04.233Z,9.03
2023-02-15T13:58:23.694Z,8.84
2023-02-15T14:00:01.838Z,8.96
2023-02-15T14:01:03.510Z,8.92
2023-02-15T14:02:36.286Z,8.94
2023-02-15T14:04:10.964Z,8.85
2023-02-15T14:05:28.486Z,8.77
2023-02-15T14:06:53.806Z,8.81
2023-02-15T14:08:47.901Z,8.95
2023-02-15T14:10:22.848Z,9.03
2023-02-15T14:11:33.300Z,9.12
2023-02-15T14:12:46.777Z,9.16
2023-02-15T14:14:02.722Z,9.08
2023-02-15T14:15:29.133Z,9.20
2023-02-15T14:17:05.463Z,9.26
2023-02-15T14:18:14.203Z,9.36
2023-02-15T14:19:16.030Z,9.43
2023-02-15T14:20:45.145Z,9.30
2023-02-15T14:21:58.619Z,9.28
2023-02-15T14:23:37.032Z,9.31
2023-02-15T14:24:45.389Z,9.22
2023-02-15T14:25:54.652Z,9.22
2023-02-15T14:27:14.893Z,9.26
2023-02-15T14:29:03.047Z,9.30
2023-02-15T14:30:19.249Z,9.33
2023-02-15T14:31:29.793Z,9.38
2023-02-15T14:32:46.854Z,9.33
2023-02-15T14:33:55.996Z,9.33
2023-02-15T14:35:03.160Z,9.40
2023-02-15T14:36:08.248Z,9.43
2023-02-15T14:37:13.023Z,9.45
2023-02-15T14:38:56.377Z,9.39
2023-02-15T14:40:29.074Z,9.32
2023-02-15T14:41:43.506Z,9.36
2023-02-15T14:42:59.216Z,9.32
2023-02-15T14:44:08.310Z,9.20